Livermore, CA (94550)

8:29 AM PDT on August 30, 2015 (GMT -0700)
San Vincente - | | Change Station
CLOSE
Current Station
Personal Weather Station
Location: Livermore, CA
Elevation: 541 ft
Nearby Weather Stations

Elev 541 ft 37.66 °N, 121.76 °W | Updated 3 seconds ago

Partly Cloudy
Partly Cloudy
64.8 °F
Feels Like 64.8 °F
N
4.9
Wind Variable Wind from WNW
Gusts 8.0 mph

Today
High -- | Low -- °F
--% Chance of Precip.
Yesterday
High -- | Low -- °F
Precip. -- in
6:35 AM 7:39 PM
Full, 99% visible
Pressure 30.03 in
Visibility 10.0 miles
Clouds Few 1800 ft
Dew Point 59 °F
Humidity 82%
Rainfall 0.00 in
Snow Depth Not available.
UV 0.6 out of 12
Pollen 6.40 out of 12
Air Quality Not available.
Flu Activity Not available.
METAR KLVK 301453Z 24005KT 10SM FEW018 19/14 A3003 RMK AO2 SLP168 T01940139 53011
Pressure 30.03 in
Visibility 10.0 miles
Clouds Few 1800 ft
Dew Point 59 °F
Humidity 82%
Rainfall 0.00 in
Snow Depth Not available.
UV 0.6 out of 12
Pollen 6.40 out of 12
Air Quality Not available.
Flu Activity Not available.
METAR KLVK 301453Z 24005KT 10SM FEW018 19/14 A3003 RMK AO2 SLP168 T01940139 53011

10-Day Weather Forecast

×

Almanac

Astronomy

Aug. 30, 2015 Rise Set
Actual Time
Civil Twilight
Nautical Twilight
Astronomical Twilight
Moon
Length of Visible Light
Length of Day
Tomorrow will be .
, % of the Moon is Illuminated

Today's Extremes

State Highs State Lows

Community

WunderPhotos

Upload Photos

1,850,995 photos uploaded!

WunderBlogs® & News

Nearby

Air Quality

  Air Quality AQ Index Pollutant
Not available.

Snow Depth

Station Depth Elevation

Earthquake Activity

City Distance Mag. Time & Date
Minimum magnitude displayed is 2.5.

Coastal Water Temperatures

Place Temperature

Stations

Nearby Weather Stations

Station Location Temp. Windchill Dew Point Humidity Wind Precip. Elev Updated Type